Time;durP1;ratioP1;P1;durP2;ratioP2;P2;SDS_P1;SDS_P2;PMS_P1;PMS_P2;Temp;Humidity;BMP_temperature;BMP_pressure;BME280_temperature;BME280_humidity;BME280_pressure;Samples;Min_cycle;Max_cycle;Signal;HPM_P1;HPM_P2
2022/05/30 00:00:16;;;;;;;4.57;2.40;;;10.10;99.90;;;;;;5003443;28;20431;-88
2022/05/30 00:02:46;;;;;;;5.27;3.37;;;10.10;99.90;;;;;;5005333;28;20485;-88
2022/05/30 00:05:15;;;;;;;5.20;2.60;;;10.00;99.90;;;;;;5006328;28;20469;-89
2022/05/30 00:07:45;;;;;;;3.93;2.60;;;10.00;99.90;;;;;;5008607;28;20457;-89
2022/05/30 00:10:15;;;;;;;5.37;2.30;;;10.00;99.90;;;;;;5006585;28;20453;-88
2022/05/30 00:12:48;;;;;;;4.63;2.80;;;10.00;99.90;;;;;;5003280;28;20449;-88
2022/05/30 00:15:20;;;;;;;4.30;2.43;;;9.90;99.90;;;;;;5002766;28;20476;-88
2022/05/30 00:17:49;;;;;;;4.20;2.50;;;9.90;99.90;;;;;;5002457;28;20458;-88
2022/05/30 00:20:19;;;;;;;7.70;2.67;;;9.90;99.90;;;;;;5002425;28;20822;-89
2022/05/30 00:22:55;;;;;;;5.50;2.50;;;9.90;99.90;;;;;;5001210;28;20545;-88
2022/05/30 00:25:24;;;;;;;4.20;2.23;;;9.90;99.90;;;;;;5011277;28;20449;-86
2022/05/30 00:27:51;;;;;;;5.20;2.90;;;9.80;99.90;;;;;;5018972;28;20496;-88
2022/05/30 04:30:24;;;;;;;10.75;3.13;;;8.10;99.90;;;;;;5048795;28;20495;-86
2022/05/30 04:33:19;;;;;;;5.63;3.20;;;8.20;99.90;;;;;;5058093;28;20258;-86
2022/05/30 04:36:36;;;;;;;;;;;;;;;;;;;;;
2022/05/30 04:39:57;;;;;;;6.57;3.10;;;8.20;99.90;;;;;;5069617;28;20228;-86
2022/05/30 04:46:39;;;;;;;8.17;3.53;;;8.50;99.90;;;;;;5132242;28;20469;-88
2022/05/30 04:49:51;;;;;;;5.40;3.40;;;8.70;99.90;;;;;;5138170;28;20491;-88
2022/05/30 05:24:18;;;;;;;5.50;3.47;;;9.30;99.90;;;;;;4992923;28;20399;-88
2022/05/30 05:31:02;;;;;;;7.10;5.40;;;9.50;99.90;;;;;;5137361;27;20448;-88
2022/05/30 05:37:31;;;;;;;6.00;4.10;;;9.70;99.90;;;;;;5056395;28;20460;-88
2022/05/30 05:40:50;;;;;;;7.30;4.90;;;9.80;99.90;;;;;;5119027;28;20852;-89
2022/05/30 05:44:17;;;;;;;10.30;4.93;;;9.90;99.90;;;;;;5097232;28;21005;-88
2022/05/30 05:47:23;;;;;;;10.40;5.13;;;10.10;99.90;;;;;;5081636;28;20480;-88
2022/05/30 06:05:58;;;;;;;15.97;6.13;;;10.70;99.90;;;;;;5033812;28;20434;-88
2022/05/30 06:08:53;;;;;;;7.60;5.87;;;10.90;99.90;;;;;;5123037;28;20571;-88
2022/05/30 06:11:35;;;;;;;6.93;4.97;;;10.80;99.90;;;;;;5127031;28;20535;-88
2022/05/30 06:14:34;;;;;;;10.00;5.87;;;10.80;99.90;;;;;;5118724;28;20460;-88
2022/05/30 06:17:07;;;;;;;7.30;5.90;;;10.70;99.90;;;;;;5112376;28;20907;-87
2022/05/30 06:20:01;;;;;;;9.27;6.43;;;10.70;99.90;;;;;;5117767;28;20828;-87
2022/05/30 06:26:44;;;;;;;10.13;6.67;;;10.90;99.90;;;;;;5119095;28;20432;-89
2022/05/30 06:31:42;;;;;;;10.23;6.17;;;11.20;99.90;;;;;;5159895;22;20479;-87
2022/05/30 06:34:41;;;;;;;10.73;6.23;;;11.20;99.90;;;;;;5101569;28;20457;-88
2022/05/30 06:37:11;;;;;;;10.67;6.50;;;11.20;99.90;;;;;;5103188;28;20442;-88
2022/05/30 06:39:40;;;;;;;10.87;6.67;;;11.40;99.90;;;;;;5107586;28;20475;-87
2022/05/30 06:42:10;;;;;;;10.73;6.43;;;11.50;99.90;;;;;;5103766;28;20507;-88
2022/05/30 06:44:37;;;;;;;14.60;8.60;;;11.60;99.90;;;;;;5102518;28;20425;-87
2022/05/30 06:47:05;;;;;;;9.90;6.93;;;11.70;99.90;;;;;;5109725;28;20520;-88
2022/05/30 06:49:33;;;;;;;9.70;6.10;;;11.70;99.90;;;;;;5113435;28;20516;-88
2022/05/30 06:52:01;;;;;;;9.97;6.43;;;11.80;99.90;;;;;;5109362;28;20467;-87
2022/05/30 06:54:28;;;;;;;9.30;6.43;;;12.00;99.90;;;;;;5106824;28;20801;-87
2022/05/30 06:59:41;;;;;;;8.87;6.10;;;12.10;99.90;;;;;;5114741;28;20473;-86
2022/05/30 07:02:11;;;;;;;10.60;6.47;;;12.10;99.90;;;;;;5108547;28;20439;-87
2022/05/30 07:04:38;;;;;;;14.63;6.30;;;12.20;99.90;;;;;;5102509;28;20488;-86
2022/05/30 07:07:07;;;;;;;11.00;5.83;;;12.20;99.90;;;;;;5105665;28;20524;-87
2022/05/30 07:09:35;;;;;;;10.43;5.87;;;12.20;99.90;;;;;;5106250;28;20457;-89
2022/05/30 07:12:05;;;;;;;8.50;5.60;;;12.30;99.90;;;;;;5103779;28;20430;-88
2022/05/30 07:14:34;;;;;;;12.00;6.10;;;12.40;99.90;;;;;;5104467;28;20471;-87
2022/05/30 07:17:01;;;;;;;7.50;5.70;;;12.60;99.90;;;;;;5102448;28;20473;-89
2022/05/30 07:19:29;;;;;;;16.80;5.60;;;12.60;99.90;;;;;;5103305;28;20462;-87
2022/05/30 07:21:59;;;;;;;8.47;6.07;;;12.70;99.90;;;;;;5107649;28;20411;-88
2022/05/30 07:24:28;;;;;;;10.20;5.67;;;12.80;99.90;;;;;;5104858;28;20417;-88
2022/05/30 07:26:56;;;;;;;6.87;5.23;;;12.80;99.90;;;;;;5109612;28;20460;-89
2022/05/30 07:29:26;;;;;;;9.20;5.30;;;12.90;99.90;;;;;;5106858;28;20414;-87
2022/05/30 07:31:59;;;;;;;9.53;4.83;;;13.00;99.90;;;;;;5102043;28;20718;-88
2022/05/30 07:34:27;;;;;;;10.00;5.00;;;13.10;99.90;;;;;;5100707;28;20455;-89
2022/05/30 07:36:55;;;;;;;10.00;5.37;;;13.20;99.90;;;;;;5103888;28;20507;-88
2022/05/30 07:39:25;;;;;;;7.63;5.10;;;13.40;99.90;;;;;;5103525;28;20435;-88
2022/05/30 07:41:52;;;;;;;7.83;5.07;;;13.60;99.90;;;;;;5101767;28;20428;-86
2022/05/30 07:44:19;;;;;;;9.90;5.33;;;13.70;99.90;;;;;;5107420;28;20808;-88
2022/05/30 07:46:48;;;;;;;7.30;4.53;;;13.60;99.90;;;;;;5111722;28;20462;-89
2022/05/30 07:49:15;;;;;;;9.60;5.23;;;13.60;99.90;;;;;;5108467;28;20410;-87
2022/05/30 07:51:44;;;;;;;9.40;4.30;;;13.70;99.90;;;;;;5099318;28;20434;-87
2022/05/30 07:54:11;;;;;;;9.50;4.80;;;13.70;99.90;;;;;;5106788;28;20434;-87
2022/05/30 07:56:38;;;;;;;7.40;4.83;;;13.70;99.90;;;;;;5113200;28;20525;-87
2022/05/30 07:59:05;;;;;;;7.83;4.17;;;13.80;99.90;;;;;;5099069;28;20453;-87
2022/05/30 08:01:33;;;;;;;5.30;3.57;;;13.70;99.90;;;;;;5098560;28;20469;-86
2022/05/30 08:04:04;;;;;;;6.93;3.87;;;13.70;99.90;;;;;;5099022;28;20803;-86
2022/05/30 08:06:31;;;;;;;8.07;3.30;;;13.80;99.90;;;;;;5100987;28;20856;-88
2022/05/30 08:09:01;;;;;;;6.47;4.07;;;13.90;99.90;;;;;;5099844;28;20567;-88
2022/05/30 08:11:28;;;;;;;8.67;2.90;;;14.00;99.90;;;;;;5101624;28;20525;-88
2022/05/30 08:13:55;;;;;;;8.10;3.37;;;14.00;99.90;;;;;;5116285;28;20437;-89
2022/05/30 08:16:25;;;;;;;7.53;3.03;;;14.20;99.90;;;;;;5117748;28;20481;-87
2022/05/30 08:18:52;;;;;;;6.67;3.20;;;14.30;99.90;;;;;;5111762;28;20763;-86
2022/05/30 08:21:26;;;;;;;4.73;2.80;;;14.30;99.50;;;;;;5100584;28;20944;-88
2022/05/30 08:23:53;;;;;;;8.10;3.20;;;14.40;99.50;;;;;;5101411;28;20395;-88
2022/05/30 08:26:20;;;;;;;6.37;3.50;;;14.50;99.40;;;;;;5102418;28;20445;-88
2022/05/30 08:28:47;;;;;;;8.53;4.17;;;14.60;99.20;;;;;;5101030;28;20526;-89
2022/05/30 08:31:15;;;;;;;13.90;9.50;;;14.70;99.20;;;;;;5103149;28;20491;-88
2022/05/30 08:33:44;;;;;;;5.47;3.20;;;14.80;99.20;;;;;;5116039;28;20432;-87
2022/05/30 08:36:13;;;;;;;7.50;4.30;;;14.80;98.30;;;;;;5100286;28;20426;-87
2022/05/30 08:38:42;;;;;;;4.90;3.07;;;14.70;98.20;;;;;;5113149;28;20887;-88
2022/05/30 08:44:01;;;;;;;5.40;2.57;;;14.80;95.40;;;;;;5116541;28;20439;-88
2022/05/30 08:46:36;;;;;;;6.77;3.43;;;14.80;95.50;;;;;;5112144;28;20415;-88
2022/05/30 08:49:16;;;;;;;6.60;2.30;;;14.90;95.70;;;;;;5113466;28;20493;-87
2022/05/30 08:52:06;;;;;;;7.33;3.50;;;14.90;95.20;;;;;;5109782;28;20433;-88
2022/05/30 08:54:43;;;;;;;5.17;2.83;;;14.90;94.90;;;;;;5110065;28;20431;-89
2022/05/30 08:57:20;;;;;;;7.87;2.33;;;14.90;94.20;;;;;;5109535;28;20478;-88
2022/05/30 09:00:04;;;;;;;5.37;2.40;;;15.00;93.30;;;;;;5106893;28;20545;-87
2022/05/30 09:02:37;;;;;;;4.37;2.00;;;15.00;93.60;;;;;;5110116;28;20444;-86
2022/05/30 09:05:09;;;;;;;3.47;1.80;;;15.00;93.00;;;;;;5111298;28;20511;-87
2022/05/30 09:07:46;;;;;;;5.90;2.30;;;15.20;92.80;;;;;;5105293;28;20471;-88
2022/05/30 09:10:22;;;;;;;4.27;2.80;;;15.10;92.00;;;;;;5105820;28;20462;-89
2022/05/30 09:12:55;;;;;;;5.20;2.20;;;15.20;92.10;;;;;;5103724;28;20532;-89
2022/05/30 09:18:25;;;;;;;5.00;2.00;;;15.70;91.10;;;;;;5098010;28;20434;-87
2022/05/30 09:20:53;;;;;;;6.17;2.67;;;15.70;91.10;;;;;;5102341;28;20446;-88
2022/05/30 09:23:25;;;;;;;5.70;2.37;;;15.70;91.00;;;;;;5100887;28;20794;-89
2022/05/30 09:26:22;;;;;;;4.50;2.00;;;15.60;90.60;;;;;;5101406;28;20424;-91
2022/05/30 09:29:08;;;;;;;3.77;1.70;;;15.70;90.70;;;;;;5100256;28;20808;-90
2022/05/30 09:31:51;;;;;;;5.13;2.80;;;15.90;89.80;;;;;;5100831;28;20484;-90
2022/05/30 09:34:45;;;;;;;4.77;2.07;;;15.80;88.80;;;;;;5103244;28;20455;-88
2022/05/30 09:37:25;;;;;;;5.63;2.00;;;15.70;87.90;;;;;;5104266;28;20432;-89
2022/05/30 09:39:58;;;;;;;5.10;2.10;;;15.70;88.40;;;;;;5105530;28;20453;-87
2022/05/30 09:42:56;;;;;;;3.70;1.47;;;15.80;88.20;;;;;;5103310;28;20437;-89
2022/05/30 09:45:27;;;;;;;4.57;1.67;;;16.10;82.80;;;;;;5103666;28;20459;-87
2022/05/30 09:48:06;;;;;;;4.50;1.70;;;15.90;78.80;;;;;;5109797;28;20452;-88
2022/05/30 09:53:58;;;;;;;5.90;1.57;;;15.90;73.20;;;;;;5047783;28;20489;-89
2022/05/30 09:56:29;;;;;;;5.57;1.63;;;16.20;73.90;;;;;;5046650;28;20438;-89
2022/05/30 09:59:07;;;;;;;3.47;1.70;;;16.40;72.90;;;;;;5101354;28;20420;-89
2022/05/30 10:01:37;;;;;;;4.40;1.80;;;16.60;71.70;;;;;;5105015;28;20472;-87
2022/05/30 10:04:17;;;;;;;4.60;1.80;;;16.80;69.90;;;;;;5111068;28;20405;-89
2022/05/30 10:07:09;;;;;;;4.40;2.20;;;16.80;71.50;;;;;;5115061;28;20412;-89
2022/05/30 10:09:57;;;;;;;3.83;1.63;;;17.00;74.10;;;;;;5111843;28;20462;-91
2022/05/30 10:12:50;;;;;;;4.50;2.00;;;17.30;72.50;;;;;;5106285;28;20427;-90
2022/05/30 10:15:28;;;;;;;4.73;1.90;;;17.60;70.50;;;;;;5109349;28;20440;-89
2022/05/30 10:18:04;;;;;;;3.90;1.67;;;17.70;70.20;;;;;;5107615;28;20429;-89
2022/05/30 10:20:54;;;;;;;4.47;2.17;;;17.80;66.90;;;;;;5105413;28;20495;-88
2022/05/30 10:30:02;;;;;;;4.27;1.30;;;17.30;64.00;;;;;;5106523;28;20477;-87
2022/05/30 10:32:39;;;;;;;4.60;1.50;;;16.90;59.10;;;;;;5109264;28;20444;-89
2022/05/30 10:35:27;;;;;;;6.27;2.07;;;16.80;61.50;;;;;;5107625;28;20475;-87
2022/05/30 10:38:24;;;;;;;3.90;1.63;;;17.20;63.00;;;;;;5105960;28;20433;-89
2022/05/30 10:41:08;;;;;;;4.67;2.00;;;17.50;62.30;;;;;;5087564;28;20498;-88
2022/05/30 10:43:51;;;;;;;3.77;1.77;;;17.50;63.80;;;;;;5101776;28;20465;-88
2022/05/30 10:46:24;;;;;;;5.47;2.03;;;17.60;63.40;;;;;;5102150;28;20436;-88
2022/05/30 10:49:02;;;;;;;4.20;2.13;;;17.70;61.30;;;;;;5110974;28;20477;-89
2022/05/30 10:51:43;;;;;;;5.00;2.00;;;18.00;61.50;;;;;;5101525;28;20505;-89
2022/05/30 10:54:21;;;;;;;4.87;1.97;;;18.00;58.30;;;;;;5106069;28;20438;-88
2022/05/30 10:56:51;;;;;;;5.90;1.70;;;17.90;58.70;;;;;;5107214;28;20915;-88
2022/05/30 10:59:30;;;;;;;3.60;1.53;;;17.90;58.50;;;;;;5103268;28;20456;-86
2022/05/30 11:02:06;;;;;;;4.43;1.60;;;17.70;58.20;;;;;;5103576;28;20441;-89
2022/05/30 11:04:47;;;;;;;3.30;1.60;;;17.50;58.10;;;;;;5106880;28;20486;-88
2022/05/30 11:07:44;;;;;;;2.93;1.20;;;17.40;58.10;;;;;;5108997;28;20427;-87
2022/05/30 11:10:29;;;;;;;4.50;1.73;;;17.40;58.00;;;;;;5107185;28;20497;-87
2022/05/30 11:13:11;;;;;;;3.13;1.50;;;17.20;58.50;;;;;;5103629;28;20451;-89
2022/05/30 11:15:57;;;;;;;3.40;1.50;;;17.30;59.30;;;;;;5108809;28;20463;-87
2022/05/30 11:24:32;;;;;;;5.67;1.90;;;18.10;58.30;;;;;;5109670;28;20422;-89
2022/05/30 11:27:48;;;;;;;3.20;1.57;;;18.00;57.80;;;;;;5116910;28;20397;-89
2022/05/30 11:30:53;;;;;;;5.07;1.73;;;18.10;57.00;;;;;;5066279;28;20471;-85
2022/05/30 11:34:02;;;;;;;4.47;1.70;;;18.00;56.90;;;;;;5102090;27;20467;-89
2022/05/30 12:05:35;;;;;;;4.30;1.60;;;18.10;56.00;;;;;;5153067;22;20504;-88
2022/05/30 12:24:30;;;;;;;3.40;1.70;;;18.30;55.00;;;;;;5066899;28;20515;-88
2022/05/30 12:33:06;;;;;;;4.00;2.07;;;18.40;53.90;;;;;;4350558;26;20480;-88
2022/05/30 12:35:43;;;;;;;3.93;2.27;;;18.30;54.50;;;;;;5023866;28;20417;-89
2022/05/30 12:38:17;;;;;;;3.67;1.70;;;18.30;55.00;;;;;;5020943;28;20563;-89
2022/05/30 12:40:56;;;;;;;3.73;1.53;;;18.40;54.20;;;;;;5020240;28;20485;-89
2022/05/30 12:43:43;;;;;;;4.20;2.07;;;18.30;54.20;;;;;;5021268;28;20788;-89
2022/05/30 12:46:20;;;;;;;6.83;2.17;;;18.40;54.20;;;;;;5020398;28;20452;-88
2022/05/30 12:49:16;;;;;;;4.03;2.07;;;18.30;54.10;;;;;;5022107;28;20440;-89
2022/05/30 12:52:02;;;;;;;6.77;1.97;;;18.30;54.60;;;;;;4987937;28;20447;-90
2022/05/30 12:54:46;;;;;;;3.70;2.20;;;18.50;53.80;;;;;;5027456;28;20446;-88
2022/05/30 12:57:39;;;;;;;5.47;2.50;;;18.60;53.20;;;;;;5039121;28;20452;-88
2022/05/30 13:00:42;;;;;;;4.20;2.50;;;18.80;53.20;;;;;;5038645;28;20479;-89
2022/05/30 13:03:35;;;;;;;5.60;2.70;;;19.10;53.00;;;;;;5032333;28;20444;-88
2022/05/30 13:07:04;;;;;;;8.23;2.60;;;19.10;52.20;;;;;;5032264;28;20514;-89
2022/05/30 13:09:40;;;;;;;5.03;2.40;;;19.10;52.00;;;;;;5024187;28;20996;-89
2022/05/30 13:12:51;;;;;;;3.70;2.00;;;19.30;52.60;;;;;;5022050;28;20486;-89
2022/05/30 13:15:46;;;;;;;7.20;2.20;;;19.30;52.20;;;;;;5022870;28;20434;-88
2022/05/30 13:18:31;;;;;;;3.67;1.93;;;19.40;52.60;;;;;;5019061;28;20507;-89
2022/05/30 13:21:04;;;;;;;5.33;2.37;;;19.40;51.30;;;;;;5023634;28;20485;-88
2022/05/30 13:23:51;;;;;;;4.90;2.17;;;19.40;51.40;;;;;;5025471;28;20455;-88
2022/05/30 13:29:37;;;;;;;4.87;2.00;;;19.20;51.90;;;;;;5031399;28;20419;-88
2022/05/30 13:32:32;;;;;;;7.20;2.10;;;19.00;52.40;;;;;;5039165;22;20507;-89
2022/05/30 13:35:18;;;;;;;5.37;2.00;;;19.00;52.50;;;;;;5046942;28;20428;-90
2022/05/30 13:38:01;;;;;;;4.13;1.97;;;19.20;52.60;;;;;;5048943;28;20456;-91
2022/05/30 13:40:34;;;;;;;3.60;1.80;;;19.60;51.90;;;;;;5063490;28;20463;-89
2022/05/30 13:43:20;;;;;;;6.27;2.00;;;19.80;51.20;;;;;;5071793;22;20497;-90
2022/05/30 13:45:57;;;;;;;6.90;1.80;;;19.70;50.60;;;;;;5030549;28;20449;-89
2022/05/30 13:48:37;;;;;;;4.43;1.77;;;20.00;51.00;;;;;;5032913;28;20461;-89
2022/05/30 13:51:37;;;;;;;4.40;2.17;;;20.00;50.20;;;;;;5275968;22;20571;-89
2022/05/30 13:54:17;;;;;;;5.10;2.77;;;20.20;49.80;;;;;;5068531;28;20536;-90
2022/05/30 14:05:09;;;;;;;4.50;2.30;;;19.70;48.60;;;;;;5044514;28;20472;-91
2022/05/30 14:08:05;;;;;;;4.00;2.00;;;19.70;49.30;;;;;;5048829;28;20416;-90
2022/05/30 14:24:14;;;;;;;3.83;2.00;;;20.10;48.70;;;;;;5007792;28;20473;-90
2022/05/30 14:38:33;;;;;;;7.47;2.47;;;20.50;48.80;;;;;;4978646;28;20454;-89
2022/05/30 14:50:30;;;;;;;4.30;2.07;;;21.30;46.50;;;;;;5007970;28;20494;-89
2022/05/30 14:53:06;;;;;;;4.20;2.13;;;20.80;46.10;;;;;;5006293;28;20459;-89
2022/05/30 14:56:20;;;;;;;6.80;2.67;;;20.60;46.70;;;;;;5005809;28;20447;-90
2022/05/30 14:58:58;;;;;;;6.60;2.70;;;20.20;46.90;;;;;;5006345;28;20505;-90
2022/05/30 15:01:27;;;;;;;4.10;1.87;;;20.40;47.80;;;;;;5007587;28;20487;-89
2022/05/30 15:04:05;;;;;;;5.63;2.30;;;20.80;46.30;;;;;;5005249;28;20432;-89
2022/05/30 15:06:39;;;;;;;4.10;2.13;;;21.00;45.80;;;;;;5064021;22;20652;-91
2022/05/30 15:09:32;;;;;;;3.77;2.13;;;21.30;45.50;;;;;;5028935;28;20492;-90
2022/05/30 15:12:09;;;;;;;5.60;2.50;;;21.20;45.10;;;;;;5025935;28;20462;-89
2022/05/30 15:14:43;;;;;;;4.63;2.30;;;21.30;44.90;;;;;;5029381;28;20498;-90
2022/05/30 15:17:18;;;;;;;4.97;2.40;;;21.60;45.40;;;;;;5029917;28;20447;-89
2022/05/30 15:19:56;;;;;;;6.60;2.93;;;21.80;44.80;;;;;;5028144;28;20490;-89
2022/05/30 15:22:41;;;;;;;8.03;2.50;;;21.90;44.40;;;;;;5027612;28;20471;-89
2022/05/30 15:36:49;;;;;;;8.07;2.70;;;20.90;45.20;;;;;;4993269;28;20471;-89
2022/05/30 15:39:28;;;;;;;5.37;2.80;;;20.70;45.60;;;;;;4999867;28;20474;-89
2022/05/30 15:42:12;;;;;;;9.10;2.10;;;20.50;45.80;;;;;;4998707;28;20517;-89
2022/05/30 15:44:55;;;;;;;4.90;2.47;;;20.50;45.90;;;;;;4998836;28;20509;-89
2022/05/30 15:50:29;;;;;;;4.67;1.83;;;20.70;46.60;;;;;;4997000;28;20455;-88
2022/05/30 16:00:37;;;;;;;3.80;2.13;;;22.60;43.90;;;;;;4887266;29;20521;-90
2022/05/30 16:03:20;;;;;;;5.07;2.33;;;22.70;43.80;;;;;;4998532;28;20463;-90
2022/05/30 16:05:59;;;;;;;4.23;2.20;;;22.80;42.70;;;;;;4999241;28;20455;-89
2022/05/30 16:08:40;;;;;;;4.77;2.47;;;21.90;43.10;;;;;;5003187;28;20424;-89
2022/05/30 16:11:10;;;;;;;4.33;2.23;;;21.10;43.80;;;;;;5013284;28;20480;-89
2022/05/30 16:13:51;;;;;;;7.23;2.47;;;21.00;44.70;;;;;;5011388;28;20444;-91
2022/05/30 16:16:26;;;;;;;4.80;2.80;;;21.10;44.40;;;;;;5014470;28;20454;-90
2022/05/30 16:18:54;;;;;;;6.90;2.37;;;20.80;44.80;;;;;;5014305;28;20457;-91
2022/05/30 16:21:25;;;;;;;3.60;1.80;;;20.60;44.90;;;;;;5009485;28;20462;-89
2022/05/30 16:24:06;;;;;;;4.77;2.20;;;20.40;45.00;;;;;;5006306;28;20416;-90
2022/05/30 16:26:38;;;;;;;6.23;2.67;;;20.30;45.40;;;;;;5016516;28;20446;-87
2022/05/30 16:29:35;;;;;;;5.70;1.80;;;20.40;45.60;;;;;;5016411;28;20408;-89
2022/05/30 16:32:02;;;;;;;4.50;2.07;;;20.50;45.50;;;;;;5011497;28;20482;-89
2022/05/30 16:34:30;;;;;;;5.03;2.27;;;20.10;45.30;;;;;;5009966;28;20470;-90
2022/05/30 16:37:06;;;;;;;7.27;2.40;;;20.00;45.60;;;;;;5012177;28;20506;-90
2022/05/30 16:39:33;;;;;;;4.23;2.07;;;19.90;46.50;;;;;;5000795;28;20485;-90
2022/05/30 16:42:04;;;;;;;6.43;3.10;;;19.90;46.60;;;;;;4998312;28;20478;-88
2022/05/30 16:44:32;;;;;;;4.30;2.87;;;19.90;47.00;;;;;;5002083;28;20927;-89
2022/05/30 16:47:02;;;;;;;4.77;2.27;;;19.90;46.70;;;;;;5003121;28;20462;-87
2022/05/30 16:49:31;;;;;;;3.97;1.90;;;19.90;46.20;;;;;;5001970;28;20455;-89
2022/05/30 16:52:00;;;;;;;3.40;1.83;;;19.80;46.50;;;;;;4996986;28;20481;-88
2022/05/30 16:54:54;;;;;;;5.90;2.20;;;19.60;46.90;;;;;;4996818;28;20464;-89
2022/05/30 16:57:30;;;;;;;4.80;2.90;;;19.70;47.40;;;;;;4956304;29;20500;-89
2022/05/30 16:59:59;;;;;;;8.70;3.63;;;19.80;47.70;;;;;;4956815;28;20785;-89
2022/05/30 17:02:38;;;;;;;4.47;2.43;;;19.60;47.70;;;;;;4985819;28;20478;-89
2022/05/30 17:05:21;;;;;;;4.73;2.80;;;19.50;48.40;;;;;;5009022;28;20450;-88
2022/05/30 17:07:54;;;;;;;9.33;3.23;;;19.60;48.80;;;;;;5016118;28;20450;-89
2022/05/30 17:10:29;;;;;;;7.20;3.07;;;19.60;48.50;;;;;;5007382;28;20551;-90
2022/05/30 17:13:07;;;;;;;4.63;2.20;;;19.70;48.50;;;;;;4998901;28;20823;-90
2022/05/30 17:15:36;;;;;;;5.47;2.70;;;19.50;48.90;;;;;;5000592;28;20517;-88
2022/05/30 17:18:07;;;;;;;6.33;2.87;;;19.30;49.20;;;;;;5001670;28;20812;-88
2022/05/30 17:20:49;;;;;;;5.10;3.00;;;19.60;48.90;;;;;;5000656;28;20512;-90
2022/05/30 17:23:17;;;;;;;7.90;3.10;;;19.60;48.70;;;;;;5005167;28;20466;-90
2022/05/30 17:25:49;;;;;;;4.97;2.30;;;19.50;48.50;;;;;;5005809;28;20497;-90
2022/05/30 17:31:06;;;;;;;6.90;2.97;;;19.40;48.20;;;;;;5004145;28;20473;-89
2022/05/30 17:33:35;;;;;;;5.30;3.00;;;19.40;48.10;;;;;;5004322;28;20470;-89
2022/05/30 17:36:06;;;;;;;7.90;5.07;;;19.30;48.40;;;;;;5003068;28;20461;-88
2022/05/30 17:38:34;;;;;;;5.17;2.60;;;19.20;48.50;;;;;;5007320;28;20569;-89
2022/05/30 17:41:02;;;;;;;4.00;2.57;;;19.10;48.70;;;;;;5001236;28;20494;-90
2022/05/30 17:43:30;;;;;;;7.70;2.70;;;19.20;49.00;;;;;;4999536;28;20486;-89
2022/05/30 17:46:22;;;;;;;5.70;3.10;;;19.30;49.00;;;;;;5000815;28;20457;-89
2022/05/30 17:49:00;;;;;;;4.53;2.27;;;19.30;49.00;;;;;;4999809;28;20454;-88
2022/05/30 17:51:36;;;;;;;7.00;4.40;;;19.20;48.70;;;;;;5003604;28;20485;-90
2022/05/30 17:54:04;;;;;;;5.80;2.50;;;19.20;48.80;;;;;;5009016;28;20926;-90
2022/05/30 17:56:35;;;;;;;3.27;2.00;;;19.00;48.60;;;;;;5004739;28;20492;-90
2022/05/30 17:59:05;;;;;;;5.20;3.00;;;19.10;49.10;;;;;;5000370;28;20566;-90
2022/05/30 18:01:34;;;;;;;4.40;2.50;;;19.10;48.80;;;;;;4998986;28;20521;-89
2022/05/30 18:04:01;;;;;;;6.63;2.87;;;19.00;48.40;;;;;;5002007;28;20466;-88
2022/05/30 18:06:35;;;;;;;8.40;2.43;;;19.00;48.90;;;;;;5000906;28;20468;-89
2022/05/30 18:09:11;;;;;;;5.20;2.67;;;18.90;49.60;;;;;;5000388;28;20457;-89
2022/05/30 18:11:51;;;;;;;6.27;2.63;;;18.90;50.90;;;;;;4999314;28;20998;-89
2022/05/30 18:14:28;;;;;;;7.47;2.80;;;18.80;50.00;;;;;;5000961;28;20465;-89
2022/05/30 18:16:58;;;;;;;4.80;2.70;;;18.70;50.00;;;;;;5003640;28;20893;-89
2022/05/30 18:19:39;;;;;;;6.87;3.10;;;18.80;50.00;;;;;;4999256;28;20465;-89
2022/05/30 18:22:37;;;;;;;4.47;2.87;;;18.70;50.20;;;;;;4999022;28;20485;-89
2022/05/30 18:25:10;;;;;;;8.70;3.50;;;18.70;50.20;;;;;;4980971;28;20451;-89
2022/05/30 18:27:43;;;;;;;5.23;3.00;;;18.80;49.80;;;;;;4999626;28;20462;-89
2022/05/30 18:30:14;;;;;;;6.83;3.20;;;18.80;49.80;;;;;;5002384;28;20471;-89
2022/05/30 18:32:51;;;;;;;4.63;2.83;;;18.80;50.10;;;;;;5011173;28;20560;-89
2022/05/30 18:35:27;;;;;;;10.03;4.60;;;18.70;49.70;;;;;;5008130;28;20772;-89
2022/05/30 18:38:12;;;;;;;7.10;3.70;;;18.60;50.10;;;;;;5002825;28;20397;-89
2022/05/30 18:40:55;;;;;;;7.37;4.07;;;18.50;50.30;;;;;;5067202;22;20579;-87
2022/05/30 18:43:48;;;;;;;7.07;4.10;;;18.50;50.30;;;;;;5048084;28;20452;-87
2022/05/30 18:46:22;;;;;;;5.03;2.93;;;18.50;50.60;;;;;;5054722;28;20531;-87
2022/05/30 18:49:36;;;;;;;5.93;3.67;;;18.30;51.00;;;;;;5048610;28;20420;-89
2022/05/30 18:58:11;;;;;;;7.90;4.53;;;18.30;52.60;;;;;;5023457;28;20505;-87
2022/05/30 19:00:58;;;;;;;6.43;3.40;;;18.20;53.10;;;;;;5019924;28;20497;-89
2022/05/30 19:03:58;;;;;;;6.83;3.80;;;18.30;53.30;;;;;;5024659;28;20464;-88
2022/05/30 19:06:49;;;;;;;8.43;5.07;;;18.20;53.70;;;;;;5032458;28;20444;-91
2022/05/30 19:09:45;;;;;;;;;;;;;;;;;;;;;
2022/05/30 19:12:37;;;;;;;5.83;3.70;;;18.10;54.50;;;;;;5023956;28;20890;-89
2022/05/30 19:18:23;;;;;;;8.63;4.57;;;18.00;55.40;;;;;;5025690;28;20485;-87
2022/05/30 19:20:55;;;;;;;10.20;5.30;;;18.00;55.70;;;;;;5034771;28;20544;-86
2022/05/30 19:29:27;;;;;;;10.23;5.10;;;17.80;56.40;;;;;;4964815;29;20406;-87
2022/05/30 19:32:01;;;;;;;6.73;4.07;;;17.90;56.70;;;;;;5028184;28;20986;-88
2022/05/30 19:34:30;;;;;;;5.97;3.87;;;17.80;57.10;;;;;;5027798;28;20393;-88
2022/05/30 19:37:05;;;;;;;5.40;3.40;;;17.90;57.50;;;;;;5025435;28;20469;-87
2022/05/30 19:39:36;;;;;;;5.60;3.83;;;17.90;57.70;;;;;;5022208;28;20463;-87
2022/05/30 19:42:05;;;;;;;5.90;3.90;;;17.70;57.80;;;;;;5023401;28;20427;-87
2022/05/30 19:44:36;;;;;;;10.23;3.93;;;17.60;58.30;;;;;;5031059;28;20440;-86
2022/05/30 19:47:06;;;;;;;5.33;2.90;;;17.40;58.80;;;;;;5037568;28;20384;-87
2022/05/30 19:49:43;;;;;;;5.10;2.63;;;17.30;59.40;;;;;;5037472;28;20451;-88
2022/05/30 19:52:11;;;;;;;5.40;3.60;;;17.20;59.60;;;;;;5020193;28;20491;-88
2022/05/30 19:54:38;;;;;;;12.10;6.90;;;17.00;60.00;;;;;;5022476;28;20442;-87
2022/05/30 19:57:11;;;;;;;7.23;4.37;;;16.90;60.80;;;;;;5023063;28;20552;-88
2022/05/30 19:59:43;;;;;;;5.87;3.67;;;16.90;61.60;;;;;;5025863;28;20473;-88
2022/05/30 20:02:12;;;;;;;7.47;4.40;;;16.90;62.50;;;;;;5027613;28;20435;-85
2022/05/30 20:04:46;;;;;;;14.20;6.73;;;16.80;62.80;;;;;;5026851;28;20491;-88
2022/05/30 20:07:13;;;;;;;7.17;4.03;;;16.60;63.10;;;;;;5025290;28;20562;-88
2022/05/30 20:09:41;;;;;;;7.23;3.50;;;16.50;63.60;;;;;;5025340;28;20431;-86
2022/05/30 20:12:12;;;;;;;6.37;3.30;;;16.60;64.00;;;;;;5024014;28;20452;-86
2022/05/30 20:14:40;;;;;;;8.03;3.67;;;16.50;64.20;;;;;;5023645;28;20502;-86
2022/05/30 20:17:07;;;;;;;9.77;4.10;;;16.40;65.10;;;;;;5024002;28;20416;-88
2022/05/30 20:19:40;;;;;;;13.70;6.97;;;16.30;65.60;;;;;;5025778;28;20536;-88
2022/05/30 20:22:13;;;;;;;5.20;2.83;;;16.10;66.40;;;;;;5022378;28;21062;-88
2022/05/30 20:24:42;;;;;;;6.40;2.87;;;16.00;67.30;;;;;;5023075;28;20483;-88
2022/05/30 20:27:13;;;;;;;4.90;2.60;;;15.90;67.80;;;;;;5035330;28;20450;-87
2022/05/30 20:29:45;;;;;;;5.40;2.83;;;15.90;68.20;;;;;;5036024;28;20468;-88
2022/05/30 20:32:13;;;;;;;5.50;3.20;;;15.80;68.70;;;;;;5034558;28;20544;-89
2022/05/30 20:34:40;;;;;;;4.70;2.80;;;15.70;69.20;;;;;;5021853;28;20414;-88
2022/05/30 20:37:18;;;;;;;7.30;2.93;;;15.60;69.90;;;;;;5021035;28;20466;-88
2022/05/30 20:39:48;;;;;;;5.00;3.20;;;15.60;70.20;;;;;;5019669;28;20496;-88
2022/05/30 20:45:06;;;;;;;7.03;3.10;;;15.40;71.10;;;;;;5019332;28;20966;-88
2022/05/30 20:47:37;;;;;;;5.17;3.10;;;15.30;71.70;;;;;;5019654;28;20399;-89
2022/05/30 20:50:11;;;;;;;6.97;3.33;;;15.20;72.40;;;;;;5021698;28;20460;-87
2022/05/30 20:52:43;;;;;;;6.43;3.23;;;15.30;73.20;;;;;;5022267;28;20422;-87
2022/05/30 20:55:11;;;;;;;5.43;2.97;;;15.30;73.60;;;;;;5024407;28;20783;-86
2022/05/30 20:57:41;;;;;;;5.77;3.40;;;15.10;74.20;;;;;;5021764;28;20948;-87
2022/05/30 21:00:13;;;;;;;6.17;2.53;;;15.10;74.80;;;;;;5023149;28;20466;-87
2022/05/30 21:02:40;;;;;;;5.93;2.73;;;15.00;75.30;;;;;;5023034;28;20441;-86
2022/05/30 21:05:12;;;;;;;5.17;2.50;;;15.00;75.90;;;;;;5033554;28;20444;-86
2022/05/30 21:07:44;;;;;;;5.93;2.93;;;14.90;76.20;;;;;;5038103;28;20455;-88
2022/05/30 21:10:13;;;;;;;5.97;2.87;;;14.90;76.70;;;;;;5023965;28;20477;-88
2022/05/30 21:12:40;;;;;;;5.60;3.13;;;14.90;77.10;;;;;;5024070;28;20458;-88
2022/05/30 21:15:15;;;;;;;7.90;2.77;;;14.90;77.70;;;;;;5023877;28;20450;-88
2022/05/30 21:17:54;;;;;;;5.17;3.00;;;14.80;78.30;;;;;;5032741;28;20459;-87
2022/05/30 21:20:35;;;;;;;7.53;3.40;;;14.70;79.30;;;;;;5041227;28;20462;-85
2022/05/30 21:23:05;;;;;;;6.30;2.80;;;14.60;80.40;;;;;;5040557;28;20423;-86
2022/05/30 21:25:34;;;;;;;6.13;3.30;;;14.50;81.20;;;;;;5037434;28;20430;-86
2022/05/30 21:28:02;;;;;;;5.57;3.40;;;14.40;81.70;;;;;;5032536;28;20485;-88
2022/05/30 21:30:30;;;;;;;5.07;2.87;;;14.30;82.50;;;;;;5024186;28;20449;-89